Terminal Aerodrome Forecast
Issued by NWS Twin Cities, MN

Home | Current Version | Previous Version | Graphics & Text | Print | Product List | Glossary On
Versions: 1 2 3 4 5 6 7 8 9 10 11 12 13 14 15
000
FTUS43 KMPX 242339
TAFEAU
TAF
KEAU 242339Z 2500/2524 31008KT P6SM BKN035
     FM250900 31006KT P6SM BKN025
     FM251600 32011G17KT P6SM BKN040=

USA.gov is the U.S. government's official web portal to all federal, state and local government web resources and services.